Teeswater, Canada
Current Conditions -  °F | °C
As of 4:00 AM on Friday 31 Oct 2014 (Local Time) from CYVV Reporting Station
Light Rain Light Rain  
Wind Chill: 34°   Ceiling: 2100
Heat Index: 41°   Visibility: 8mi
Dew Point: 39°   Wind: 12mph
Humidity: 93%   Direction: 180°S
Pressure: 29.89"   Gusts: NA
Location:  43.98°N, 81.28°W
Report Text: CYVV 310800Z 18010KT 8SM -RA OVC021 05/04 A2989 RMK SC8 SLP130
Loading
Personal Weather Stations






























Interactive Weather Map
Tropical Storm Tracking
New forecast layout! Learn more

10-Day Weather Forecast

Advertisements
Track Severe Weather on mobile